createdAt,value
2022-10-01T00:01:19.437Z,63.57
2022-10-01T00:03:47.450Z,65.61
2022-10-01T00:06:18.299Z,58.11
2022-10-01T00:08:48.149Z,54.95
2022-10-01T00:11:25.776Z,56.56
2022-10-01T00:13:54.349Z,58.05
2022-10-01T00:16:25.161Z,65.75
2022-10-01T00:18:55.463Z,66.12
2022-10-01T00:21:26.814Z,56.80
2022-10-01T00:24:06.435Z,54.20
2022-10-01T00:26:37.169Z,55.52
2022-10-01T00:29:07.570Z,57.19
2022-10-01T00:31:34.181Z,64.12
2022-10-01T00:34:02.770Z,66.75
2022-10-01T00:36:31.197Z,58.41
2022-10-01T00:38:59.915Z,54.63
2022-10-01T00:41:29.815Z,55.52
2022-10-01T00:44:02.746Z,58.09
2022-10-01T00:46:40.000Z,64.20
2022-10-01T00:49:19.375Z,66.38
2022-10-01T00:52:00.050Z,56.84
2022-10-01T00:54:36.528Z,53.66
2022-10-01T00:57:05.721Z,55.29
2022-10-01T00:59:34.944Z,57.57
2022-10-01T01:02:01.533Z,63.98
2022-10-01T01:04:28.039Z,65.96
2022-10-01T01:06:59.036Z,58.34
2022-10-01T01:09:37.341Z,54.89
2022-10-01T01:12:47.733Z,56.09
2022-10-01T01:15:19.820Z,57.13
2022-10-01T01:18:05.079Z,64.85
2022-10-01T01:21:06.347Z,66.94
2022-10-01T01:24:06.986Z,61.31
2022-10-01T01:27:32.305Z,52.98
2022-10-01T01:30:11.022Z,52.91
2022-10-01T01:33:02.619Z,55.13
2022-10-01T01:35:37.040Z,56.67
2022-10-01T01:38:13.956Z,58.29
2022-10-01T01:40:45.254Z,65.01
2022-10-01T01:43:19.073Z,67.31
2022-10-01T01:45:51.005Z,60.71
2022-10-01T01:48:17.397Z,55.43
2022-10-01T01:50:51.923Z,54.51
2022-10-01T01:53:19.696Z,55.99
2022-10-01T01:55:48.782Z,58.38
2022-10-01T01:58:18.244Z,65.27
2022-10-01T02:00:51.890Z,67.76
2022-10-01T02:03:25.921Z,57.79
2022-10-01T02:06:43.709Z,53.83
2022-10-01T02:09:27.797Z,54.60
2022-10-01T02:12:22.127Z,56.82
2022-10-01T02:15:00.475Z,58.08
2022-10-01T02:17:38.640Z,67.60
2022-10-01T02:20:15.161Z,66.94
2022-10-01T02:22:56.942Z,56.54
2022-10-01T02:25:30.519Z,52.84
2022-10-01T02:28:12.733Z,54.16
2022-10-01T02:30:44.441Z,55.59
2022-10-01T02:33:15.355Z,57.86
2022-10-01T02:35:46.469Z,66.11
2022-10-01T02:38:16.289Z,67.21
2022-10-01T02:40:46.131Z,56.70
2022-10-01T02:43:22.275Z,52.89
2022-10-01T02:45:57.990Z,54.56
2022-10-01T02:48:26.707Z,56.63
2022-10-01T02:51:15.223Z,57.92
2022-10-01T02:53:48.683Z,66.01
2022-10-01T02:56:36.054Z,65.80
2022-10-01T02:59:06.939Z,61.12
2022-10-01T03:01:37.344Z,54.62
2022-10-01T03:04:04.052Z,54.33
2022-10-01T03:06:30.365Z,56.88
2022-10-01T03:08:56.974Z,58.26
2022-10-01T03:11:23.248Z,64.92
2022-10-01T03:13:49.641Z,65.96
2022-10-01T03:16:16.141Z,56.24
2022-10-01T03:18:42.623Z,53.71
2022-10-01T03:21:08.983Z,55.29
2022-10-01T03:23:35.343Z,56.94
2022-10-01T03:26:01.757Z,58.77
2022-10-01T03:28:28.189Z,66.13
2022-10-01T03:31:05.776Z,65.17
2022-10-01T03:33:32.148Z,56.61
2022-10-01T03:35:58.474Z,55.06
2022-10-01T03:38:25.030Z,56.69
2022-10-01T03:40:51.363Z,58.07
2022-10-01T03:43:17.673Z,63.95
2022-10-01T03:45:44.145Z,65.27
2022-10-01T03:48:10.546Z,62.30
2022-10-01T03:50:36.893Z,57.31
2022-10-01T03:53:03.297Z,55.43
2022-10-01T03:55:29.696Z,56.79
2022-10-01T03:57:56.712Z,58.13
2022-10-01T04:00:23.136Z,62.69
2022-10-01T04:02:49.520Z,64.89
2022-10-01T04:05:16.612Z,63.00
2022-10-01T04:07:43.032Z,61.74
2022-10-01T04:10:09.528Z,61.44
2022-10-01T04:12:36.283Z,54.68
2022-10-01T04:15:02.917Z,52.83
2022-10-01T04:17:29.295Z,54.79
2022-10-01T04:19:57.255Z,56.24
2022-10-01T04:22:23.572Z,58.48
2022-10-01T04:24:50.064Z,65.27
2022-10-01T04:27:16.423Z,66.68
2022-10-01T04:29:42.818Z,58.26
2022-10-01T04:32:09.183Z,54.59
2022-10-01T04:34:53.700Z,55.79
2022-10-01T04:37:21.517Z,57.10
2022-10-01T04:39:48.372Z,58.87
2022-10-01T04:42:15.524Z,66.12
2022-10-01T04:44:41.826Z,65.91
2022-10-01T04:47:08.627Z,60.62
2022-10-01T04:49:36.050Z,56.08
2022-10-01T04:52:03.782Z,55.05
2022-10-01T04:54:30.164Z,56.53
2022-10-01T04:56:57.851Z,62.92
2022-10-01T04:59:25.214Z,65.50
2022-10-01T05:01:51.856Z,62.79
2022-10-01T05:04:18.251Z,60.84
2022-10-01T05:06:44.592Z,56.33
2022-10-01T05:09:10.946Z,55.36
2022-10-01T05:11:38.565Z,57.11
2022-10-01T05:14:05.359Z,58.72
2022-10-01T05:16:31.866Z,63.48
2022-10-01T05:18:58.480Z,65.88
2022-10-01T05:21:24.894Z,63.38
2022-10-01T05:23:51.867Z,61.27
2022-10-01T05:26:18.282Z,57.68
2022-10-01T05:28:44.718Z,56.03
2022-10-01T05:31:12.817Z,57.50
2022-10-01T05:33:40.083Z,58.55
2022-10-01T05:36:06.607Z,62.09
2022-10-01T05:38:36.731Z,65.09
2022-10-01T05:41:04.494Z,63.43
2022-10-01T05:43:30.889Z,60.89
2022-10-01T05:46:02.899Z,59.82
2022-10-01T05:48:33.590Z,60.10
2022-10-01T05:50:59.902Z,59.96
2022-10-01T05:53:26.388Z,58.33
2022-10-01T05:55:53.060Z,57.97
2022-10-01T05:58:19.455Z,59.04
2022-10-01T06:00:45.850Z,62.68
2022-10-01T06:03:17.826Z,64.57
2022-10-01T06:05:44.337Z,61.61
2022-10-01T06:08:10.856Z,60.95
2022-10-01T06:10:38.135Z,58.01
2022-10-01T06:13:05.325Z,57.11
2022-10-01T06:15:37.610Z,58.33
2022-10-01T06:18:06.758Z,61.94
2022-10-01T06:20:34.123Z,64.68
2022-10-01T06:23:00.572Z,62.24
2022-10-01T06:25:31.127Z,61.85
2022-10-01T06:27:59.275Z,61.91
2022-10-01T06:30:28.927Z,57.83
2022-10-01T06:33:08.507Z,55.77
2022-10-01T06:35:40.161Z,57.19
2022-10-01T06:38:07.552Z,58.93
2022-10-01T06:40:33.898Z,62.25
2022-10-01T06:43:00.299Z,65.58
2022-10-01T06:45:29.235Z,64.59
2022-10-01T06:48:03.691Z,62.88
2022-10-01T06:50:32.110Z,61.79
2022-10-01T06:53:00.003Z,58.77
2022-10-01T06:55:30.890Z,57.35
2022-10-01T06:58:00.885Z,59.30
2022-10-01T07:00:31.984Z,60.99
2022-10-01T07:03:00.134Z,63.90
2022-10-01T07:05:27.594Z,65.43
2022-10-01T07:07:54.069Z,63.41
2022-10-01T07:10:22.751Z,59.08
2022-10-01T07:12:50.844Z,57.58
2022-10-01T07:15:23.087Z,60.01
2022-10-01T07:17:52.287Z,61.30
2022-10-01T07:20:20.758Z,63.68
2022-10-01T07:22:48.422Z,62.82
2022-10-01T07:25:15.559Z,60.93
2022-10-01T07:27:42.053Z,57.77
2022-10-01T07:30:09.239Z,57.32
2022-10-01T07:32:35.665Z,57.95
2022-10-01T07:35:02.118Z,58.84
2022-10-01T07:37:28.458Z,60.13
2022-10-01T07:39:54.797Z,61.10
2022-10-01T07:42:21.209Z,62.52
2022-10-01T07:44:47.667Z,64.82
2022-10-01T07:47:14.824Z,63.23
2022-10-01T07:49:41.156Z,58.52
2022-10-01T07:52:12.355Z,56.08
2022-10-01T07:54:40.358Z,56.85
2022-10-01T07:57:07.505Z,57.62
2022-10-01T07:59:33.836Z,57.87
2022-10-01T08:02:00.416Z,59.46
2022-10-01T08:04:45.764Z,59.50
2022-10-01T08:07:12.171Z,59.81
2022-10-01T08:09:39.310Z,59.37
2022-10-01T08:12:05.742Z,59.89
2022-10-01T08:14:32.097Z,59.51
2022-10-01T08:16:58.519Z,59.41
2022-10-01T08:19:24.985Z,58.78
2022-10-01T08:21:52.205Z,57.73
2022-10-01T08:24:19.557Z,56.83
2022-10-01T08:26:55.512Z,56.66
2022-10-01T08:29:22.423Z,57.46
2022-10-01T08:31:49.634Z,58.55
2022-10-01T08:34:16.607Z,58.82
2022-10-01T08:36:43.107Z,59.03
2022-10-01T08:39:13.034Z,59.11
2022-10-01T08:42:23.580Z,58.48
2022-10-01T08:44:52.249Z,58.69
2022-10-01T08:47:33.344Z,57.54
2022-10-01T08:50:25.739Z,56.49
2022-10-01T08:53:06.894Z,56.26
2022-10-01T08:55:36.800Z,56.88
2022-10-01T08:58:11.664Z,56.71
2022-10-01T09:00:45.958Z,56.78
2022-10-01T09:03:15.013Z,57.24
2022-10-01T09:06:00.799Z,57.68
2022-10-01T09:09:14.883Z,57.27
2022-10-01T09:12:03.742Z,56.68
2022-10-01T09:14:55.218Z,55.96
2022-10-01T09:17:54.358Z,55.52
2022-10-01T09:20:28.550Z,55.42
2022-10-01T09:23:17.995Z,55.75
2022-10-01T09:25:51.976Z,55.38
2022-10-01T09:28:51.701Z,55.43
2022-10-01T09:31:40.861Z,55.51
2022-10-01T09:34:15.101Z,53.91
2022-10-01T09:37:21.174Z,53.88
2022-10-01T09:40:05.882Z,53.54
2022-10-01T09:42:32.340Z,53.47
2022-10-01T09:44:59.218Z,53.64
2022-10-01T09:47:26.254Z,53.89
2022-10-01T09:49:52.746Z,53.81
2022-10-01T09:52:32.982Z,53.44
2022-10-01T09:55:06.681Z,53.31
2022-10-01T09:57:42.588Z,53.62
2022-10-01T10:00:21.425Z,53.82
2022-10-01T10:02:51.137Z,53.08
2022-10-01T10:05:39.328Z,52.39
2022-10-01T10:08:19.573Z,52.80
2022-10-01T10:10:59.836Z,52.69
2022-10-01T10:13:34.668Z,52.72
2022-10-01T10:16:26.911Z,53.25
2022-10-01T10:19:00.113Z,53.43
2022-10-01T10:21:34.414Z,52.97
2022-10-01T10:24:05.906Z,52.97
2022-10-01T10:26:38.241Z,52.66
2022-10-01T10:29:13.439Z,52.48
2022-10-01T10:31:44.371Z,52.97
2022-10-01T10:34:32.309Z,53.45
2022-10-01T10:37:06.941Z,53.75
2022-10-01T10:39:40.627Z,54.07
2022-10-01T10:42:07.962Z,53.87
2022-10-01T10:44:39.223Z,53.92
2022-10-01T10:47:18.722Z,53.23
2022-10-01T10:49:49.046Z,53.31
2022-10-01T10:52:37.089Z,53.33
2022-10-01T10:55:32.407Z,53.32
2022-10-01T10:58:14.614Z,53.48
2022-10-01T11:00:49.958Z,53.17
2022-10-01T11:03:29.569Z,53.18
2022-10-01T11:06:10.727Z,53.28
2022-10-01T11:08:38.942Z,53.47
2022-10-01T11:11:52.895Z,53.51
2022-10-01T11:15:10.490Z,53.84
2022-10-01T11:18:11.667Z,53.79
2022-10-01T11:20:51.359Z,53.54
2022-10-01T11:23:47.166Z,53.69
2022-10-01T11:26:43.437Z,53.86
2022-10-01T11:29:29.281Z,53.51
2022-10-01T11:32:22.283Z,53.54
2022-10-01T11:35:21.517Z,53.55
2022-10-01T11:37:52.095Z,53.95
2022-10-01T11:40:43.320Z,54.02
2022-10-01T11:43:27.736Z,54.11
2022-10-01T11:46:08.691Z,54.43
2022-10-01T11:48:51.393Z,54.59
2022-10-01T11:51:33.813Z,54.66
2022-10-01T11:54:11.903Z,55.00
2022-10-01T11:57:07.098Z,55.26
2022-10-01T11:59:52.020Z,55.42
2022-10-01T12:02:49.574Z,55.52
2022-10-01T12:05:31.497Z,55.29
2022-10-01T12:08:20.212Z,55.15
2022-10-01T12:11:19.836Z,55.26
2022-10-01T12:14:23.154Z,55.53
2022-10-01T12:17:03.795Z,55.62
2022-10-01T12:19:36.449Z,55.45
2022-10-01T12:22:24.303Z,55.63
2022-10-01T12:24:53.317Z,55.72
2022-10-01T12:27:29.050Z,55.92
2022-10-01T12:30:07.890Z,56.07
2022-10-01T12:33:01.574Z,56.09
2022-10-01T12:36:25.050Z,56.30
2022-10-01T12:39:45.004Z,55.91
2022-10-01T12:43:05.594Z,55.86
2022-10-01T12:46:24.754Z,55.88
2022-10-01T12:49:01.452Z,55.76
2022-10-01T12:51:45.122Z,55.66
2022-10-01T12:54:47.600Z,55.55
2022-10-01T12:57:52.541Z,55.44
2022-10-01T13:00:24.540Z,55.58
2022-10-01T13:03:22.223Z,55.66
2022-10-01T13:06:35.758Z,55.94
2022-10-01T13:09:28.983Z,56.10
2022-10-01T13:12:25.903Z,56.42
2022-10-01T13:14:54.597Z,56.65
2022-10-01T13:17:38.009Z,56.76
2022-10-01T13:20:25.137Z,56.92
2022-10-01T13:23:24.166Z,56.90
2022-10-01T13:26:39.873Z,57.02
2022-10-01T13:30:02.581Z,57.49
2022-10-01T13:32:36.986Z,57.87
2022-10-01T13:35:52.245Z,58.28
2022-10-01T13:38:38.370Z,58.57
2022-10-01T13:41:18.300Z,58.91
2022-10-01T13:44:01.859Z,59.12
2022-10-01T13:46:34.966Z,59.27
2022-10-01T13:49:24.812Z,59.48
2022-10-01T13:51:52.993Z,59.42
2022-10-01T13:54:36.911Z,59.61
2022-10-01T13:57:38.494Z,59.58
2022-10-01T14:00:10.879Z,59.87
2022-10-01T14:02:44.903Z,59.98
2022-10-01T14:05:17.331Z,59.99
2022-10-01T14:07:49.755Z,60.07
2022-10-01T14:10:17.232Z,60.22
2022-10-01T14:13:21.797Z,60.41
2022-10-01T14:15:59.246Z,60.63
2022-10-01T14:18:42.348Z,60.79
2022-10-01T14:22:09.826Z,60.96
2022-10-01T14:25:16.544Z,61.15
2022-10-01T14:28:13.887Z,61.38
2022-10-01T14:31:15.161Z,61.58
2022-10-01T14:34:11.929Z,63.01
2022-10-01T14:36:49.011Z,62.85
2022-10-01T14:39:27.337Z,58.46
2022-10-01T14:41:56.550Z,56.92
2022-10-01T14:44:45.623Z,57.84
2022-10-01T14:47:23.607Z,58.31
2022-10-01T14:49:51.617Z,59.89
2022-10-01T14:52:48.816Z,60.57
2022-10-01T14:55:21.515Z,61.07
2022-10-01T14:57:53.768Z,62.59
2022-10-01T15:00:27.932Z,61.55
2022-10-01T15:03:14.871Z,61.03
2022-10-01T15:05:43.191Z,57.19
2022-10-01T15:08:44.460Z,56.58
2022-10-01T15:11:33.739Z,57.84
2022-10-01T15:14:10.058Z,59.19
2022-10-01T15:16:37.481Z,60.22
2022-10-01T15:19:15.235Z,61.18
2022-10-01T15:21:50.938Z,63.38
2022-10-01T15:24:40.395Z,62.91
2022-10-01T15:27:11.689Z,61.74
2022-10-01T15:29:43.016Z,58.42
2022-10-01T15:32:16.855Z,56.35
2022-10-01T15:34:52.856Z,57.27
2022-10-01T15:37:28.041Z,58.77
2022-10-01T15:39:55.827Z,60.16
2022-10-01T15:42:30.271Z,61.00
2022-10-01T15:45:22.799Z,63.26
2022-10-01T15:47:56.326Z,63.82
2022-10-01T15:50:31.896Z,59.53
2022-10-01T15:53:06.709Z,57.51
2022-10-01T15:55:41.633Z,57.95
2022-10-01T15:58:16.621Z,59.97
2022-10-01T16:00:47.052Z,60.68
2022-10-01T16:03:31.941Z,63.21
2022-10-01T16:06:01.609Z,63.78
2022-10-01T16:08:33.995Z,61.49
2022-10-01T16:11:12.422Z,57.72
2022-10-01T16:13:46.491Z,56.78
2022-10-01T16:16:13.076Z,58.43
2022-10-01T16:18:40.712Z,59.74
2022-10-01T16:21:10.580Z,61.28
2022-10-01T16:23:48.756Z,63.46
2022-10-01T16:26:30.846Z,64.81
2022-10-01T16:29:19.808Z,61.77
2022-10-01T16:31:47.020Z,58.53
2022-10-01T16:34:18.089Z,57.30
2022-10-01T16:36:45.938Z,58.42
2022-10-01T16:39:14.797Z,60.06
2022-10-01T16:41:53.445Z,63.16
2022-10-01T16:44:28.507Z,64.24
2022-10-01T16:46:57.666Z,62.10
2022-10-01T16:49:25.711Z,61.03
2022-10-01T16:51:53.532Z,58.24
2022-10-01T16:54:24.363Z,57.65
2022-10-01T16:56:54.518Z,59.07
2022-10-01T16:59:23.119Z,62.50
2022-10-01T17:01:54.201Z,63.76
2022-10-01T17:04:22.942Z,61.79
2022-10-01T17:06:49.919Z,60.34
2022-10-01T17:09:18.795Z,57.14
2022-10-01T17:11:47.062Z,57.29
2022-10-01T17:14:20.647Z,59.05
2022-10-01T17:16:50.884Z,60.84
2022-10-01T17:19:21.986Z,63.92
2022-10-01T17:21:50.929Z,64.79
2022-10-01T17:24:19.821Z,62.74
2022-10-01T17:26:49.412Z,60.76
2022-10-01T17:29:20.239Z,60.74
2022-10-01T17:31:53.952Z,57.27
2022-10-01T17:34:22.863Z,57.15
2022-10-01T17:36:50.364Z,59.80
2022-10-01T17:39:19.463Z,62.26
2022-10-01T17:41:47.165Z,65.51
2022-10-01T17:44:15.442Z,65.76
2022-10-01T17:46:44.779Z,62.68
2022-10-01T17:49:14.417Z,62.09
2022-10-01T17:51:42.952Z,58.94
2022-10-01T17:54:09.898Z,57.35
2022-10-01T17:56:38.635Z,58.52
2022-10-01T17:59:06.982Z,61.62
2022-10-01T18:01:36.290Z,63.65
2022-10-01T18:04:05.570Z,62.48
2022-10-01T18:06:33.577Z,60.49
2022-10-01T18:09:02.509Z,57.43
2022-10-01T18:11:29.595Z,57.16
2022-10-01T18:13:57.090Z,59.11
2022-10-01T18:16:25.453Z,60.49
2022-10-01T18:21:47.899Z,64.65
2022-10-01T18:24:16.011Z,63.17
2022-10-01T18:26:44.492Z,61.24
2022-10-01T18:29:22.823Z,58.40
2022-10-01T18:32:10.927Z,57.14
2022-10-01T18:34:54.366Z,59.38
2022-10-01T18:37:37.665Z,62.94
2022-10-01T18:40:20.431Z,63.80
2022-10-01T18:43:15.741Z,61.50
2022-10-01T18:46:05.244Z,60.02
2022-10-01T18:48:48.074Z,57.91
2022-10-01T18:52:04.590Z,59.51
2022-10-01T18:55:21.368Z,63.57
2022-10-01T18:58:38.732Z,62.88
2022-10-01T19:02:00.830Z,58.60
2022-10-01T19:04:46.077Z,57.71
2022-10-01T19:07:42.550Z,60.59
2022-10-01T19:10:37.320Z,63.54
2022-10-01T19:13:35.395Z,62.76
2022-10-01T19:16:50.796Z,60.55
2022-10-01T19:19:56.931Z,59.35
2022-10-01T19:22:43.888Z,57.44
2022-10-01T19:25:27.538Z,60.69
2022-10-01T19:28:30.130Z,62.37
2022-10-01T19:31:09.784Z,64.83
2022-10-01T19:33:48.343Z,63.19
2022-10-01T19:36:30.406Z,61.82
2022-10-01T19:39:08.606Z,60.29
2022-10-01T19:42:05.199Z,58.91
2022-10-01T19:44:44.876Z,59.68
2022-10-01T19:47:31.658Z,61.96
2022-10-01T19:50:11.907Z,65.28
2022-10-01T19:52:40.839Z,64.99
2022-10-01T19:55:19.255Z,63.63
2022-10-01T19:57:46.772Z,61.79
2022-10-01T20:00:19.044Z,60.76
2022-10-01T20:03:09.556Z,59.76
2022-10-01T20:06:05.446Z,57.75
2022-10-01T20:08:47.177Z,60.27
2022-10-01T20:11:44.112Z,63.83
2022-10-01T20:14:57.401Z,64.80
2022-10-01T20:18:12.732Z,63.07
2022-10-01T20:21:20.888Z,61.01
2022-10-01T20:24:17.817Z,60.72
2022-10-01T20:27:49.732Z,59.77
2022-10-01T20:30:20.584Z,58.64
2022-10-01T20:33:19.533Z,59.56
2022-10-01T20:36:43.463Z,63.67
2022-10-01T20:39:25.357Z,63.88
2022-10-01T20:41:54.169Z,62.82
2022-10-01T20:44:28.591Z,61.47
2022-10-01T20:47:23.212Z,61.22
2022-10-01T20:50:24.972Z,60.39
2022-10-01T20:53:08.483Z,60.25
2022-10-01T20:55:45.362Z,60.01
2022-10-01T20:58:23.092Z,59.94
2022-10-01T21:01:00.561Z,59.06
2022-10-01T21:03:42.204Z,58.57
2022-10-01T21:06:25.962Z,61.27
2022-10-01T21:08:58.189Z,65.01
2022-10-01T21:11:27.549Z,65.84
2022-10-01T21:14:14.577Z,63.69
2022-10-01T21:17:21.214Z,61.95
2022-10-01T21:20:05.415Z,60.98
2022-10-01T21:22:45.837Z,60.65
2022-10-01T21:25:42.846Z,60.04
2022-10-01T21:29:00.567Z,59.89
2022-10-01T21:32:17.908Z,60.26
2022-10-01T21:35:13.252Z,60.40
2022-10-01T21:37:48.513Z,60.45
2022-10-01T21:40:54.252Z,60.02
2022-10-01T21:43:35.772Z,60.20
2022-10-01T21:46:31.795Z,59.96
2022-10-01T21:49:10.437Z,59.93
2022-10-01T21:52:26.395Z,60.16
2022-10-01T21:55:22.725Z,60.30
2022-10-01T21:58:20.331Z,59.97
2022-10-01T22:01:21.142Z,60.03
2022-10-01T22:03:56.802Z,59.94
2022-10-01T22:06:44.646Z,58.13
2022-10-01T22:09:37.481Z,59.90
2022-10-01T22:12:06.905Z,64.18
2022-10-01T22:14:33.729Z,65.38
2022-10-01T22:17:17.166Z,64.15
2022-10-01T22:19:53.192Z,62.98
2022-10-01T22:22:32.617Z,62.52
2022-10-01T22:25:02.158Z,61.55
2022-10-01T22:27:48.146Z,61.36
2022-10-01T22:30:22.101Z,60.85
2022-10-01T22:32:59.046Z,60.87
2022-10-01T22:35:54.477Z,60.66
2022-10-01T22:38:45.116Z,60.99
2022-10-01T22:41:55.408Z,60.51
2022-10-01T22:44:22.900Z,59.99
2022-10-01T22:47:05.380Z,59.97
2022-10-01T22:49:51.913Z,59.91
2022-10-01T22:52:32.727Z,59.72
2022-10-01T22:55:27.033Z,56.82
2022-10-01T22:58:18.313Z,57.50
2022-10-01T23:01:11.592Z,62.49
2022-10-01T23:03:59.139Z,64.08
2022-10-01T23:07:10.384Z,62.99
2022-10-01T23:10:11.420Z,61.98
2022-10-01T23:13:18.671Z,62.12
2022-10-01T23:16:13.142Z,61.65
2022-10-01T23:18:48.605Z,61.23
2022-10-01T23:21:49.849Z,60.89
2022-10-01T23:24:48.387Z,59.81
2022-10-01T23:28:00.001Z,56.93
2022-10-01T23:30:40.690Z,58.34
2022-10-01T23:33:44.611Z,63.22
2022-10-01T23:36:42.376Z,64.58
2022-10-01T23:39:45.523Z,64.04
2022-10-01T23:42:36.848Z,62.30
2022-10-01T23:45:24.374Z,62.36
2022-10-01T23:48:17.522Z,61.91
2022-10-01T23:51:11.335Z,60.85
2022-10-01T23:53:56.723Z,60.65
2022-10-01T23:56:50.410Z,60.41
2022-10-01T23:59:58.532Z,59.69
